Terminal Aerodrome Forecast
Issued by NWS

Home | Current Version | Previous Version | Text Only | Print | Product List | Glossary On
Versions: 1 2 3 4 5 6 7 8 9 10 11 12 13 14 15 16 17 18 19 20 21 22 23 24 25 26 27 28 29 30 31
000
FTUS45 KSLC 211741
TAFLGU
TAF
KLGU 211741Z 2118/2218 VRB03KT P6SM VCSH SCT100 BKN120
     FM212200 VRB05KT P6SM -SHRA SCT060 OVC080
     FM221000 VRB05KT P6SM VCSH SCT080 BKN120=

USA.gov is the U.S. government's official web portal to all federal, state and local government web resources and services.